createdAt,value
2017-10-28T00:01:22.137Z,99.90
2017-10-28T00:04:44.902Z,99.90
2017-10-28T00:08:02.568Z,99.90
2017-10-28T00:11:13.404Z,99.90
2017-10-28T00:14:24.061Z,99.90
2017-10-28T00:17:33.773Z,99.90
2017-10-28T00:20:38.500Z,99.90
2017-10-28T00:23:47.155Z,99.90
2017-10-28T00:26:54.049Z,99.90
2017-10-28T00:29:59.876Z,99.90
2017-10-28T00:33:10.575Z,99.90
2017-10-28T00:36:22.581Z,99.90
2017-10-28T00:43:03.924Z,99.90
2017-10-28T00:46:10.720Z,99.90
2017-10-28T00:49:26.658Z,99.90
2017-10-28T00:52:32.149Z,99.90
2017-10-28T00:55:40.160Z,99.90
2017-10-28T00:58:47.853Z,99.90
2017-10-28T01:02:02.615Z,99.90
2017-10-28T01:05:10.177Z,99.90
2017-10-28T01:08:17.083Z,99.90
2017-10-28T01:11:43.049Z,99.90
2017-10-28T01:15:04.873Z,99.90
2017-10-28T01:18:18.656Z,99.90
2017-10-28T01:21:23.361Z,99.90
2017-10-28T01:24:36.030Z,99.90
2017-10-28T01:27:42.813Z,99.90
2017-10-28T01:30:49.391Z,99.90
2017-10-28T01:33:55.013Z,99.90
2017-10-28T01:37:05.697Z,99.90
2017-10-28T01:40:11.771Z,99.90
2017-10-28T01:43:22.425Z,99.90
2017-10-28T01:46:27.968Z,99.90
2017-10-28T01:49:35.518Z,99.90
2017-10-28T01:52:45.480Z,99.90
2017-10-28T01:55:57.059Z,99.90
2017-10-28T01:59:01.634Z,99.90
2017-10-28T02:02:07.384Z,99.90
2017-10-28T02:05:15.137Z,99.90
2017-10-28T02:08:24.818Z,99.90
2017-10-28T02:11:36.577Z,99.90
2017-10-28T02:14:44.256Z,99.90
2017-10-28T02:17:52.085Z,99.90
2017-10-28T02:21:15.025Z,99.90
2017-10-28T02:24:21.573Z,99.90
2017-10-28T02:27:28.296Z,99.90
2017-10-28T02:30:33.917Z,99.90
2017-10-28T02:33:55.635Z,99.90
2017-10-28T02:37:08.374Z,99.90
2017-10-28T02:40:15.041Z,99.90
2017-10-28T02:43:28.015Z,99.90
2017-10-28T02:46:33.685Z,99.90
2017-10-28T02:49:44.511Z,99.90
2017-10-28T02:52:52.435Z,99.90
2017-10-28T02:55:57.107Z,99.90
2017-10-28T02:59:02.523Z,99.90
2017-10-28T03:02:10.330Z,99.90
2017-10-28T03:05:21.952Z,99.90
2017-10-28T03:08:28.895Z,99.90
2017-10-28T03:11:38.660Z,99.90
2017-10-28T03:14:47.504Z,99.90
2017-10-28T03:17:53.429Z,99.90
2017-10-28T03:20:59.915Z,99.90
2017-10-28T03:24:08.697Z,99.90
2017-10-28T03:27:16.595Z,99.90
2017-10-28T03:30:28.463Z,99.90
2017-10-28T03:33:33.880Z,99.90
2017-10-28T03:36:52.680Z,99.90
2017-10-28T03:40:03.509Z,99.90
2017-10-28T03:43:09.082Z,99.90
2017-10-28T03:46:17.916Z,99.90
2017-10-28T03:49:27.809Z,99.90
2017-10-28T03:52:38.685Z,99.90
2017-10-28T03:55:43.456Z,99.90
2017-10-28T03:58:54.296Z,99.90
2017-10-28T04:02:02.983Z,99.90
2017-10-28T04:05:08.915Z,99.90
2017-10-28T04:08:23.674Z,99.90
2017-10-28T04:11:34.304Z,99.90
2017-10-28T04:14:44.164Z,99.90
2017-10-28T04:17:56.748Z,99.90
2017-10-28T04:21:14.588Z,99.90
2017-10-28T04:24:26.337Z,99.90
2017-10-28T04:27:35.007Z,99.90
2017-10-28T04:30:52.667Z,99.90
2017-10-28T04:34:04.412Z,99.90
2017-10-28T04:37:12.922Z,99.90
2017-10-28T04:40:30.744Z,99.90
2017-10-28T04:43:40.486Z,99.90
2017-10-28T04:46:46.112Z,99.90
2017-10-28T04:49:57.024Z,99.90
2017-10-28T04:53:18.996Z,99.90
2017-10-28T04:56:28.877Z,99.90
2017-10-28T04:59:33.880Z,99.90
2017-10-28T05:02:44.736Z,99.90
2017-10-28T05:05:55.637Z,99.90
2017-10-28T05:09:01.093Z,99.90
2017-10-28T05:12:09.861Z,99.90
2017-10-28T05:15:27.645Z,99.90
2017-10-28T05:18:50.268Z,99.90
2017-10-28T05:21:55.897Z,99.90
2017-10-28T05:25:01.654Z,99.90
2017-10-28T05:28:07.832Z,99.90
2017-10-28T05:31:17.605Z,99.90
2017-10-28T05:34:23.306Z,99.90
2017-10-28T05:37:35.388Z,99.90
2017-10-28T05:40:40.157Z,99.90
2017-10-28T05:43:46.956Z,99.90
2017-10-28T05:46:54.680Z,99.90
2017-10-28T05:50:00.307Z,99.90
2017-10-28T05:53:14.064Z,99.90
2017-10-28T05:56:43.031Z,99.90
2017-10-28T05:59:57.561Z,99.90
2017-10-28T06:03:05.099Z,99.90
2017-10-28T06:06:11.936Z,99.90
2017-10-28T06:09:24.659Z,99.90
2017-10-28T06:12:50.509Z,99.90
2017-10-28T06:16:04.406Z,99.90
2017-10-28T06:19:15.104Z,99.90
2017-10-28T06:22:32.081Z,99.90
2017-10-28T06:25:40.711Z,99.90
2017-10-28T06:28:48.648Z,99.90
2017-10-28T06:31:56.550Z,99.90
2017-10-28T06:35:01.348Z,99.90
2017-10-28T06:38:06.817Z,99.90
2017-10-28T06:41:12.588Z,99.90
2017-10-28T06:44:18.043Z,99.90
2017-10-28T06:47:33.916Z,99.90
2017-10-28T06:50:39.626Z,99.90
2017-10-28T06:53:52.631Z,99.90
2017-10-28T06:57:01.194Z,99.90
2017-10-28T07:00:09.332Z,99.90
2017-10-28T07:03:37.226Z,99.90
2017-10-28T07:06:45.089Z,99.90
2017-10-28T07:09:57.082Z,99.90
2017-10-28T07:13:02.884Z,99.90
2017-10-28T07:16:08.734Z,99.90
2017-10-28T07:19:20.544Z,99.90
2017-10-28T07:22:35.425Z,99.90
2017-10-28T07:25:49.062Z,99.90
2017-10-28T07:28:55.919Z,99.90
2017-10-28T07:32:00.779Z,99.90
2017-10-28T07:35:05.926Z,99.90
2017-10-28T07:38:13.496Z,99.90
2017-10-28T07:41:18.357Z,99.90
2017-10-28T07:44:28.941Z,99.90
2017-10-28T07:47:37.785Z,99.90
2017-10-28T07:50:44.388Z,99.90
2017-10-28T07:53:49.790Z,99.90
2017-10-28T07:57:04.336Z,99.90
2017-10-28T08:00:10.993Z,99.90
2017-10-28T08:03:17.676Z,99.90
2017-10-28T08:06:22.412Z,99.90
2017-10-28T08:09:45.092Z,99.90
2017-10-28T08:12:53.622Z,99.90
2017-10-28T08:16:00.154Z,99.90
2017-10-28T08:19:05.754Z,99.90
2017-10-28T08:22:11.366Z,99.90
2017-10-28T08:25:17.083Z,99.90
2017-10-28T08:28:23.697Z,99.90
2017-10-28T08:31:31.620Z,99.90
2017-10-28T08:34:37.377Z,99.90
2017-10-28T08:37:43.136Z,99.90
2017-10-28T08:40:53.777Z,99.90
2017-10-28T08:44:00.756Z,99.90
2017-10-28T08:47:06.656Z,99.90
2017-10-28T08:50:12.092Z,99.90
2017-10-28T08:53:16.919Z,99.90
2017-10-28T08:56:22.604Z,99.90
2017-10-28T08:59:28.180Z,99.90
2017-10-28T09:02:45.885Z,99.90
2017-10-28T09:05:51.567Z,99.90
2017-10-28T09:08:57.297Z,99.90
2017-10-28T09:12:05.133Z,99.90
2017-10-28T09:15:10.802Z,99.90
2017-10-28T09:18:23.416Z,99.90
2017-10-28T09:21:29.031Z,99.90
2017-10-28T09:24:39.584Z,99.90
2017-10-28T09:27:47.363Z,99.90
2017-10-28T09:31:01.217Z,99.90
2017-10-28T09:34:06.647Z,99.90
2017-10-28T09:37:20.292Z,99.90
2017-10-28T09:40:25.866Z,99.90
2017-10-28T09:43:33.269Z,99.90
2017-10-28T09:46:38.894Z,99.90
2017-10-28T09:49:52.258Z,99.90
2017-10-28T09:52:57.869Z,99.90
2017-10-28T09:56:10.514Z,99.90
2017-10-28T09:59:15.385Z,99.90
2017-10-28T10:02:22.060Z,99.90
2017-10-28T10:05:26.860Z,99.90
2017-10-28T10:08:35.465Z,99.90
2017-10-28T10:11:42.095Z,98.70
2017-10-28T10:14:53.773Z,98.70
2017-10-28T10:17:58.760Z,97.60
2017-10-28T10:21:07.180Z,97.70
2017-10-28T10:24:11.786Z,97.30
2017-10-28T10:27:18.349Z,95.90
2017-10-28T10:30:27.030Z,96.20
2017-10-28T10:33:39.883Z,96.30
2017-10-28T10:36:48.601Z,97.10
2017-10-28T10:39:56.391Z,97.10
2017-10-28T10:43:03.062Z,96.50
2017-10-28T10:46:09.737Z,96.10
2017-10-28T10:49:15.240Z,95.60
2017-10-28T10:52:20.913Z,95.90
2017-10-28T10:55:36.564Z,95.40
2017-10-28T10:58:42.128Z,95.00
2017-10-28T11:01:48.584Z,95.00
2017-10-28T11:04:53.314Z,94.80
2017-10-28T11:08:04.106Z,94.80
2017-10-28T11:11:15.741Z,93.80
2017-10-28T11:14:26.453Z,93.60
2017-10-28T11:17:32.089Z,94.40
2017-10-28T11:20:50.720Z,94.40
2017-10-28T11:23:57.210Z,93.60
2017-10-28T11:27:09.770Z,93.50
2017-10-28T11:30:16.186Z,93.80
2017-10-28T11:33:22.876Z,93.20
2017-10-28T11:36:27.476Z,93.10
2017-10-28T11:39:32.069Z,92.80
2017-10-28T11:42:37.710Z,92.70
2017-10-28T11:45:45.342Z,92.80
2017-10-28T11:48:51.036Z,92.30
2017-10-28T11:51:56.544Z,92.30
2017-10-28T11:55:03.928Z,92.70
2017-10-28T11:58:09.879Z,92.80
2017-10-28T12:01:16.609Z,92.50
2017-10-28T12:04:25.131Z,93.10
2017-10-28T12:07:30.820Z,93.10
2017-10-28T12:10:37.523Z,92.90
2017-10-28T12:13:44.082Z,92.20
2017-10-28T12:16:48.861Z,92.40
2017-10-28T12:19:56.589Z,92.60
2017-10-28T12:23:02.966Z,92.60
2017-10-28T12:26:09.361Z,92.70
2017-10-28T12:29:16.171Z,92.50
2017-10-28T12:32:20.760Z,92.40
2017-10-28T12:35:28.413Z,92.40
2017-10-28T12:38:33.283Z,92.40
2017-10-28T12:41:38.937Z,93.10
2017-10-28T12:44:45.470Z,93.10
2017-10-28T12:47:51.340Z,92.70
2017-10-28T12:50:57.863Z,92.60
2017-10-28T12:54:04.403Z,92.60
2017-10-28T12:57:10.119Z,92.90
2017-10-28T13:00:15.728Z,93.60
2017-10-28T13:03:23.394Z,93.40
2017-10-28T13:06:41.165Z,93.40
2017-10-28T13:09:45.812Z,93.30
2017-10-28T13:12:52.595Z,93.60
2017-10-28T13:15:57.989Z,93.90
2017-10-28T13:19:02.626Z,93.30
2017-10-28T13:22:11.129Z,93.20
2017-10-28T13:25:16.005Z,93.90
2017-10-28T13:28:24.750Z,93.50
2017-10-28T13:31:29.538Z,93.80
2017-10-28T13:34:35.996Z,93.80
2017-10-28T13:37:44.608Z,93.90
2017-10-28T13:40:50.289Z,94.20
2017-10-28T13:43:56.160Z,93.60
2017-10-28T13:47:03.553Z,93.60
2017-10-28T13:50:17.361Z,93.80
2017-10-28T13:53:21.977Z,93.70
2017-10-28T13:56:28.846Z,93.90
2017-10-28T13:59:34.420Z,93.90
2017-10-28T14:02:43.014Z,93.80
2017-10-28T14:05:53.752Z,94.10
2017-10-28T14:09:00.337Z,94.10
2017-10-28T14:12:05.220Z,94.20
2017-10-28T14:15:12.046Z,94.30
2017-10-28T14:18:16.837Z,94.60
2017-10-28T14:21:23.230Z,94.40
2017-10-28T14:24:33.040Z,94.30
2017-10-28T14:27:40.473Z,94.20
2017-10-28T14:30:45.165Z,94.30
2017-10-28T14:33:55.989Z,94.30
2017-10-28T14:37:04.670Z,94.30
2017-10-28T14:40:12.373Z,94.30
2017-10-28T14:43:17.932Z,94.20
2017-10-28T14:46:24.596Z,93.60
2017-10-28T14:49:30.222Z,94.10
2017-10-28T14:52:44.408Z,94.00
2017-10-28T14:55:50.860Z,93.80
2017-10-28T14:59:01.729Z,93.70
2017-10-28T15:02:19.620Z,93.90
2017-10-28T15:09:00.306Z,93.80
2017-10-28T15:12:14.881Z,94.20
2017-10-28T15:15:23.659Z,94.60
2017-10-28T15:18:29.259Z,94.60
2017-10-28T15:21:36.632Z,94.60
2017-10-28T15:24:42.452Z,94.60
2017-10-28T15:27:48.105Z,94.40
2017-10-28T15:30:53.814Z,94.60
2017-10-28T15:34:00.144Z,94.90
2017-10-28T15:37:04.847Z,94.80
2017-10-28T15:40:10.702Z,95.00
2017-10-28T15:43:21.343Z,95.10
2017-10-28T15:46:26.777Z,95.20
2017-10-28T15:49:33.494Z,95.70
2017-10-28T15:52:43.987Z,95.40
2017-10-28T15:55:49.740Z,95.30
2017-10-28T15:59:11.769Z,95.90
2017-10-28T16:02:17.328Z,96.00
2017-10-28T16:05:24.006Z,96.00
2017-10-28T16:08:36.989Z,96.20
2017-10-28T16:11:42.536Z,96.50
2017-10-28T16:14:47.203Z,96.70
2017-10-28T16:17:52.742Z,97.00
2017-10-28T16:20:58.499Z,97.50
2017-10-28T16:24:03.981Z,97.80
2017-10-28T16:27:12.674Z,97.20
2017-10-28T16:30:17.148Z,97.50
2017-10-28T16:33:21.866Z,97.70
2017-10-28T16:36:28.479Z,97.80
2017-10-28T16:39:40.100Z,97.80
2017-10-28T16:42:54.904Z,98.10
2017-10-28T16:46:06.652Z,97.90
2017-10-28T16:49:13.104Z,98.10
2017-10-28T16:52:24.952Z,97.90
2017-10-28T16:55:29.590Z,97.90
2017-10-28T16:58:36.344Z,97.90
2017-10-28T17:01:53.104Z,98.00
2017-10-28T17:04:59.868Z,98.10
2017-10-28T17:08:05.436Z,98.00
2017-10-28T17:11:14.993Z,97.90
2017-10-28T17:14:29.666Z,97.80
2017-10-28T17:17:43.349Z,97.80
2017-10-28T17:20:59.800Z,98.10
2017-10-28T17:24:08.679Z,98.10
2017-10-28T17:27:15.393Z,97.90
2017-10-28T17:30:23.221Z,98.00
2017-10-28T17:33:28.937Z,97.90
2017-10-28T17:36:33.633Z,98.00
2017-10-28T17:39:41.028Z,98.00
2017-10-28T17:42:46.615Z,98.10
2017-10-28T17:45:52.139Z,98.30
2017-10-28T17:48:59.747Z,98.10
2017-10-28T17:52:04.430Z,98.10
2017-10-28T17:55:15.017Z,97.90
2017-10-28T17:58:20.792Z,98.10
2017-10-28T18:01:31.587Z,98.30
2017-10-28T18:04:37.391Z,98.10
2017-10-28T18:07:42.659Z,98.20
2017-10-28T18:10:49.374Z,98.20
2017-10-28T18:13:54.941Z,98.50
2017-10-28T18:17:06.593Z,98.20
2017-10-28T18:20:12.144Z,98.90
2017-10-28T18:23:16.851Z,98.80
2017-10-28T18:26:23.814Z,98.90
2017-10-28T18:29:30.115Z,98.60
2017-10-28T18:32:35.893Z,98.70
2017-10-28T18:35:40.512Z,98.70
2017-10-28T18:38:45.746Z,98.90
2017-10-28T18:41:51.489Z,98.90
2017-10-28T18:44:59.020Z,98.90
2017-10-28T18:48:10.969Z,98.80
2017-10-28T18:51:16.664Z,99.10
2017-10-28T18:54:22.260Z,98.80
2017-10-28T18:57:27.866Z,98.80
2017-10-28T19:00:32.722Z,99.00
2017-10-28T19:03:38.150Z,99.20
2017-10-28T19:06:46.731Z,99.00
2017-10-28T19:09:53.581Z,99.30
2017-10-28T19:12:59.695Z,99.30
2017-10-28T19:16:04.437Z,99.30
2017-10-28T19:19:11.823Z,99.40
2017-10-28T19:22:19.399Z,99.70
2017-10-28T19:25:27.765Z,99.40
2017-10-28T19:28:33.290Z,99.50
2017-10-28T19:31:38.889Z,99.40
2017-10-28T19:34:50.980Z,99.40
2017-10-28T19:37:55.497Z,99.40
2017-10-28T19:41:00.901Z,99.70
2017-10-28T19:44:06.872Z,99.60
2017-10-28T19:47:13.307Z,99.50
2017-10-28T19:50:18.882Z,99.60
2017-10-28T19:53:23.646Z,99.40
2017-10-28T19:56:34.475Z,99.60
2017-10-28T19:59:45.274Z,99.50
2017-10-28T20:02:49.941Z,99.50
2017-10-28T20:05:54.624Z,99.40
2017-10-28T20:08:59.276Z,99.50
2017-10-28T20:12:04.107Z,99.70
2017-10-28T20:15:11.044Z,99.60
2017-10-28T20:18:15.920Z,99.60
2017-10-28T20:21:20.889Z,99.70
2017-10-28T20:24:30.544Z,99.80
2017-10-28T20:27:37.240Z,99.70
2017-10-28T20:30:56.166Z,99.90
2017-10-28T20:34:02.928Z,99.90
2017-10-28T20:37:13.754Z,99.90
2017-10-28T20:40:22.444Z,99.90
2017-10-28T20:43:34.404Z,99.90
2017-10-28T20:46:44.227Z,99.90
2017-10-28T20:49:52.080Z,99.90
2017-10-28T20:53:02.872Z,99.90
2017-10-28T20:56:09.860Z,99.90
2017-10-28T20:59:14.602Z,99.90
2017-10-28T21:02:22.211Z,99.90
2017-10-28T21:05:33.849Z,99.90
2017-10-28T21:08:50.477Z,99.90
2017-10-28T21:12:03.515Z,99.90
2017-10-28T21:15:10.252Z,99.90
2017-10-28T21:18:25.897Z,99.90
2017-10-28T21:21:31.528Z,99.90
2017-10-28T21:24:37.101Z,99.90
2017-10-28T21:27:50.097Z,99.90
2017-10-28T21:30:58.835Z,99.90
2017-10-28T21:36:52.712Z,99.90
2017-10-28T21:39:59.416Z,99.90
2017-10-28T21:43:10.292Z,99.90
2017-10-28T21:46:15.944Z,99.90
2017-10-28T21:49:21.152Z,99.90
2017-10-28T21:52:28.634Z,99.90
2017-10-28T21:55:37.436Z,99.90
2017-10-28T21:58:48.152Z,99.90
2017-10-28T22:01:54.865Z,99.90
2017-10-28T22:05:02.654Z,99.90
2017-10-28T22:08:08.238Z,99.90
2017-10-28T22:11:26.993Z,99.90
2017-10-28T22:14:33.603Z,99.90
2017-10-28T22:17:39.291Z,99.90
2017-10-28T22:20:45.025Z,99.90
2017-10-28T22:23:58.777Z,99.90
2017-10-28T22:27:15.407Z,99.90
2017-10-28T22:30:20.384Z,99.90
2017-10-28T22:37:13.828Z,99.90
2017-10-28T22:40:19.344Z,99.90
2017-10-28T22:43:26.980Z,99.90
2017-10-28T22:46:34.506Z,99.90
2017-10-28T22:49:46.165Z,99.90
2017-10-28T22:52:52.841Z,99.90
2017-10-28T22:55:59.416Z,99.90
2017-10-28T22:59:04.251Z,99.90
2017-10-28T23:02:14.281Z,99.90
2017-10-28T23:05:21.005Z,99.90
2017-10-28T23:08:30.791Z,99.90
2017-10-28T23:11:38.493Z,99.90
2017-10-28T23:14:45.062Z,99.90
2017-10-28T23:17:59.972Z,99.90
2017-10-28T23:21:11.875Z,99.90
2017-10-28T23:24:22.653Z,99.90
2017-10-28T23:27:27.639Z,99.90
2017-10-28T23:30:32.217Z,99.90
2017-10-28T23:33:39.155Z,99.90
2017-10-28T23:36:52.956Z,99.90
2017-10-28T23:39:57.816Z,99.90
2017-10-28T23:43:08.942Z,99.90
2017-10-28T23:46:22.715Z,99.90
2017-10-28T23:49:27.533Z,99.90
2017-10-28T23:52:39.641Z,99.90
2017-10-28T23:55:50.262Z,99.90
2017-10-28T23:58:55.933Z,99.90
